createdAt,value
2018-01-13T15:05:57.752Z,56.79
2018-01-13T15:08:29.262Z,57.09
2018-01-13T15:10:58.386Z,57.12
2018-01-13T15:13:27.488Z,57.25
2018-01-13T15:15:57.391Z,57.47
2018-01-13T15:18:26.524Z,57.51
2018-01-13T15:20:57.310Z,57.39
2018-01-13T15:23:26.440Z,57.31
2018-01-13T15:25:55.650Z,57.43
2018-01-13T15:28:25.208Z,57.53
2018-01-13T15:30:55.843Z,57.55
2018-01-13T15:33:25.063Z,57.79
2018-01-13T15:35:54.526Z,57.84
2018-01-13T15:38:23.702Z,57.68
2018-01-13T15:40:52.827Z,57.84
2018-01-13T15:43:22.278Z,57.88
2018-01-13T15:45:52.208Z,57.77
2018-01-13T15:50:50.975Z,57.96
2018-01-13T15:53:20.095Z,58.12
2018-01-13T15:55:49.269Z,58.75
2018-01-13T15:58:18.693Z,58.70
2018-01-13T16:00:48.977Z,58.53
2018-01-13T16:03:48.013Z,58.39
2018-01-13T16:06:17.460Z,58.33
2018-01-13T16:08:46.601Z,58.59
2018-01-13T16:11:15.978Z,58.67
2018-01-13T16:13:46.822Z,58.82
2018-01-13T16:16:16.003Z,58.90
2018-01-13T16:18:45.193Z,58.66
2018-01-13T16:21:14.669Z,58.20
2018-01-13T16:23:44.129Z,57.96
2018-01-13T16:27:15.967Z,58.33
2018-01-13T16:29:45.195Z,57.91
2018-01-13T16:32:15.125Z,58.12
2018-01-13T16:34:44.712Z,58.03
2018-01-13T16:37:13.883Z,58.16
2018-01-13T16:39:43.058Z,58.38
2018-01-13T16:42:12.478Z,58.80
2018-01-13T16:44:41.586Z,59.28
2018-01-13T16:47:11.119Z,58.86
2018-01-13T16:49:41.112Z,58.95
2018-01-13T16:52:10.495Z,59.27
2018-01-13T16:54:39.867Z,59.29
2018-01-13T16:57:09.755Z,59.38
2018-01-13T16:59:39.241Z,58.73
2018-01-13T17:02:08.510Z,58.53
2018-01-13T17:04:37.655Z,58.62
2018-01-13T17:07:07.840Z,58.32
2018-01-13T17:09:41.465Z,57.99
2018-01-13T17:12:11.563Z,57.83
2018-01-13T17:14:40.989Z,57.79
2018-01-13T17:17:10.273Z,58.32
2018-01-13T17:19:39.805Z,58.19
2018-01-13T17:22:09.346Z,57.84
2018-01-13T17:24:38.597Z,57.76
2018-01-13T17:27:08.540Z,57.87
2018-01-13T17:29:38.076Z,58.04
2018-01-13T17:32:08.060Z,58.08
2018-01-13T17:34:37.450Z,57.67
2018-01-13T17:37:06.919Z,58.00
2018-01-13T17:39:36.422Z,58.33
2018-01-13T17:42:07.040Z,58.01
2018-01-13T17:44:36.119Z,57.70
2018-01-13T17:47:05.304Z,58.07
2018-01-13T17:49:35.050Z,58.35
2018-01-13T17:52:06.540Z,58.55
2018-01-13T17:54:35.851Z,58.30
2018-01-13T17:57:06.312Z,58.52
2018-01-13T17:59:35.706Z,58.41
2018-01-13T18:02:07.019Z,58.33
2018-01-13T18:04:36.747Z,58.36
2018-01-13T18:07:05.894Z,58.40
2018-01-13T18:09:35.245Z,58.29
2018-01-13T18:12:05.573Z,58.17
2018-01-13T18:14:34.963Z,58.46
2018-01-13T18:17:05.649Z,58.37
2018-01-13T18:19:35.032Z,58.35
2018-01-13T18:22:06.374Z,58.47
2018-01-13T18:24:35.759Z,58.69
2018-01-13T18:27:04.991Z,58.67
2018-01-13T18:29:34.604Z,58.57
2018-01-13T18:32:06.006Z,58.40
2018-01-13T18:34:35.393Z,58.23
2018-01-13T18:37:04.622Z,58.64
2018-01-13T18:39:34.013Z,59.00
2018-01-13T18:42:05.288Z,59.00
2018-01-13T18:44:34.378Z,59.11
2018-01-13T18:47:07.317Z,59.20
2018-01-13T18:49:36.449Z,59.40
2018-01-13T18:52:08.606Z,59.37
2018-01-13T18:54:39.052Z,59.42
2018-01-13T18:57:08.204Z,59.24
2018-01-13T18:59:37.315Z,59.17
2018-01-13T19:02:06.788Z,59.22
2018-01-13T19:04:35.958Z,59.43
2018-01-13T19:07:05.727Z,59.47
2018-01-13T19:09:35.215Z,59.36
2018-01-13T19:12:06.504Z,59.00
2018-01-13T19:14:35.979Z,59.17
2018-01-13T19:17:07.238Z,59.27
2018-01-13T19:19:36.645Z,59.49
2018-01-13T19:22:07.400Z,59.87
2018-01-13T19:24:51.446Z,60.11
2018-01-13T19:27:20.551Z,60.00
2018-01-13T19:29:51.365Z,60.23
2018-01-13T19:32:20.447Z,60.39
2018-01-13T19:34:49.557Z,60.46
2018-01-13T19:37:49.456Z,60.56
2018-01-13T19:40:18.594Z,60.75
2018-01-13T19:42:48.126Z,60.97
2018-01-13T19:45:17.206Z,61.44
2018-01-13T19:47:46.703Z,61.58
2018-01-13T19:50:18.298Z,61.52
2018-01-13T19:52:48.474Z,61.89
2018-01-13T19:55:17.588Z,61.79
2018-01-13T19:57:46.954Z,61.88
2018-01-13T20:00:16.576Z,61.83
2018-01-13T20:02:54.284Z,61.93
2018-01-13T20:05:23.476Z,61.96
2018-01-13T20:07:52.782Z,61.99
2018-01-13T20:10:22.955Z,62.17
2018-01-13T20:12:52.216Z,62.30
2018-01-13T20:15:21.663Z,62.36
2018-01-13T20:17:50.854Z,62.35
2018-01-13T20:20:19.986Z,62.53
2018-01-13T20:22:49.240Z,62.45
2018-01-13T20:25:18.565Z,62.29
2018-01-13T20:27:47.771Z,62.42
2018-01-13T20:30:16.913Z,62.48
2018-01-13T20:32:46.314Z,62.20
2018-01-13T20:35:15.840Z,62.27
2018-01-13T20:37:45.097Z,62.29
2018-01-13T20:40:15.500Z,62.46
2018-01-13T20:42:46.357Z,62.63
2018-01-13T20:45:16.156Z,62.54
2018-01-13T20:47:45.377Z,62.74
2018-01-13T20:50:14.578Z,62.70
2018-01-13T20:52:45.877Z,62.74
2018-01-13T20:55:17.155Z,62.82
2018-01-13T20:57:46.359Z,62.76
2018-01-13T21:00:15.519Z,62.40
2018-01-13T21:02:44.766Z,62.43
2018-01-13T21:05:13.928Z,62.57
2018-01-13T21:07:43.479Z,62.52
2018-01-13T21:10:12.637Z,62.58
2018-01-13T21:12:41.900Z,62.63
2018-01-13T21:15:11.848Z,62.78
2018-01-13T21:17:41.051Z,62.61
2018-01-13T21:20:10.547Z,62.29
2018-01-13T21:22:39.712Z,62.42
2018-01-13T21:25:09.134Z,62.45
2018-01-13T21:27:38.494Z,62.44
2018-01-13T21:30:07.755Z,62.74
2018-01-13T21:32:36.886Z,62.78
2018-01-13T21:35:06.456Z,62.72
2018-01-13T21:37:35.868Z,62.67
2018-01-13T21:40:05.715Z,62.66
2018-01-13T21:42:35.136Z,62.68
2018-01-13T21:45:04.666Z,62.74
2018-01-13T21:47:33.821Z,62.51
2018-01-13T21:50:04.044Z,62.29
2018-01-13T21:52:33.224Z,62.17
2018-01-13T21:55:03.869Z,62.00
2018-01-13T21:57:33.271Z,62.13
2018-01-13T22:00:04.237Z,61.90
2018-01-13T22:02:33.362Z,61.86
2018-01-13T22:05:03.050Z,61.58
2018-01-13T22:07:32.415Z,61.56
2018-01-13T22:10:01.820Z,61.19
2018-01-13T22:12:31.331Z,61.17
2018-01-13T22:15:02.015Z,61.35
2018-01-13T22:17:31.216Z,61.44
2018-01-13T22:20:00.865Z,61.52
2018-01-13T22:22:29.967Z,61.57
2018-01-13T22:24:59.112Z,61.43
2018-01-13T22:27:28.284Z,61.54
2018-01-13T22:29:58.191Z,61.44
2018-01-13T22:32:27.349Z,61.46
2018-01-13T22:34:56.792Z,61.50
2018-01-13T22:37:25.937Z,61.76
2018-01-13T22:39:55.722Z,61.86
2018-01-13T22:42:24.913Z,61.96
2018-01-13T22:44:54.010Z,61.77
2018-01-13T22:47:23.131Z,61.48
2018-01-13T22:49:52.539Z,61.35
2018-01-13T22:52:21.628Z,61.49
2018-01-13T22:54:50.767Z,61.85
2018-01-13T22:57:20.171Z,62.00
2018-01-13T22:59:49.291Z,61.99
2018-01-13T23:02:18.427Z,61.97
2018-01-13T23:04:48.487Z,61.60
2018-01-13T23:07:17.626Z,61.57
2018-01-13T23:09:46.842Z,61.34
2018-01-13T23:12:16.248Z,61.41
2018-01-13T23:14:45.540Z,61.39
2018-01-13T23:17:14.676Z,61.27
2018-01-13T23:19:44.198Z,61.28
2018-01-13T23:22:13.302Z,61.07
2018-01-13T23:24:42.427Z,61.29
2018-01-13T23:27:20.842Z,61.10
2018-01-13T23:29:49.992Z,61.25
2018-01-13T23:32:19.129Z,61.50
2018-01-13T23:34:48.335Z,61.46
2018-01-13T23:37:17.409Z,61.14
2018-01-13T23:39:46.563Z,61.25
2018-01-13T23:42:15.650Z,61.49
2018-01-13T23:44:45.144Z,61.50
2018-01-13T23:47:14.241Z,61.59
2018-01-13T23:49:43.423Z,61.68
2018-01-13T23:52:12.524Z,61.50
2018-01-13T23:54:41.710Z,61.73
2018-01-13T23:57:11.104Z,61.67
2018-01-13T23:59:40.193Z,62.12
